Time;durP1;ratioP1;P1;durP2;ratioP2;P2;SDS_P1;SDS_P2;PMS_P1;PMS_P2;Temp;Humidity;BMP_temperature;BMP_pressure;BME280_temperature;BME280_humidity;BME280_pressure;Samples;Min_cycle;Max_cycle;Signal;HPM_P1;HPM_P2
2024/03/02 00:00:02;;;;;;;;;;;;;;;19.97;47.33;100103.53;2068154;28;2459;-68
2024/03/02 00:01:04;;;;;;;;;;;;;;;19.92;47.56;100096.16;2067845;28;6876;-68
2024/03/02 00:02:06;;;;;;;;;;;;;;;19.94;47.39;100104.88;2069726;28;2809;-69
2024/03/02 00:03:09;;;;;;;;;;;;;;;19.93;47.47;100105.53;2067173;28;1993;-69
2024/03/02 00:04:11;;;;;;;;;;;;;;;19.92;47.59;100099.03;2067040;28;2478;-67
2024/03/02 00:05:14;;;;;;;;;;;;;;;19.92;47.56;100099.03;2068348;28;2513;-69
2024/03/02 00:06:19;;;;;;;;;;;;;;;19.88;47.54;100102.53;2068029;28;2400;-68
2024/03/02 00:07:20;;;;;;;;;;;;;;;19.84;47.75;100098.78;2068327;28;1761;-69
2024/03/02 00:08:24;;;;;;;;;;;;;;;19.86;47.71;100101.72;2068598;28;2343;-68
2024/03/02 00:09:25;;;;;;;;;;;;;;;19.90;47.69;100096.09;2067877;28;2394;-68
2024/03/02 00:10:31;;;;;;;;;;;;;;;19.90;47.53;100095.38;2068248;28;2033;-69
2024/03/02 00:11:34;;;;;;;;;;;;;;;19.96;47.60;100090.56;2067678;28;2333;-68
2024/03/02 00:12:36;;;;;;;;;;;;;;;19.93;47.59;100094.78;2068138;28;2496;-68
2024/03/02 00:13:39;;;;;;;;;;;;;;;19.88;47.61;100091.03;2067602;28;1571;-68
2024/03/02 00:14:41;;;;;;;;;;;;;;;19.85;47.61;100094.47;2067037;28;2400;-68
2024/03/02 00:15:52;;;;;;;;;;;;;;;19.85;47.61;100094.47;2068329;28;2741;-68
2024/03/02 00:16:54;;;;;;;;;;;;;;;19.91;47.54;100086.09;2067733;28;2546;-68
2024/03/02 00:17:56;;;;;;;;;;;;;;;19.97;47.28;100097.06;2068033;28;1504;-68
2024/03/02 00:19:05;;;;;;;;;;;;;;;19.96;47.27;100096.31;2067926;28;1563;-69
2024/03/02 00:20:09;;;;;;;;;;;;;;;19.98;47.33;100096.41;2068158;28;1738;-70
2024/03/02 00:21:10;;;;;;;;;;;;;;;19.96;47.38;100095.59;2069067;28;1575;-69
2024/03/02 00:22:12;;;;;;;;;;;;;;;19.94;47.29;100107.00;2068525;28;1627;-69
2024/03/02 00:23:17;;;;;;;;;;;;;;;19.91;47.58;100091.84;2068511;28;1548;-69
2024/03/02 00:24:21;;;;;;;;;;;;;;;19.86;47.62;100093.81;2067704;28;1693;-69
2024/03/02 00:25:22;;;;;;;;;;;;;;;19.88;47.50;100093.91;2066326;28;2440;-69
2024/03/02 00:26:23;;;;;;;;;;;;;;;19.88;47.46;100087.41;2066913;28;2448;-69
2024/03/02 00:27:25;;;;;;;;;;;;;;;19.87;47.46;100094.56;2067585;28;1465;-69
2024/03/02 00:28:36;;;;;;;;;;;;;;;19.85;47.68;100094.47;2069231;28;1571;-68
2024/03/02 00:29:37;;;;;;;;;;;;;;;19.83;47.67;100092.25;2067716;28;1575;-68
2024/03/02 00:30:58;;;;;;;;;;;;;;;19.80;47.77;100092.88;2067211;28;6004;-69
2024/03/02 00:32:00;;;;;;;;;;;;;;;19.81;47.72;100088.59;2067750;28;2631;-68
2024/03/02 00:33:02;;;;;;;;;;;;;;;19.84;47.64;100093.75;2067841;28;1842;-69
2024/03/02 00:34:04;;;;;;;;;;;;;;;19.84;47.56;100088.00;2069222;28;1789;-69
2024/03/02 00:35:06;;;;;;;;;;;;;;;19.81;47.62;100088.59;2066402;28;2106;-69
2024/03/02 00:36:08;;;;;;;;;;;;;;;19.77;47.67;100082.69;2067624;28;2431;-69
2024/03/02 00:37:11;;;;;;;;;;;;;;;19.75;47.89;100085.50;2068464;28;2440;-68
2024/03/02 00:38:15;;;;;;;;;;;;;;;19.77;47.77;100088.44;2067097;28;1604;-69
2024/03/02 00:39:17;;;;;;;;;;;;;;;19.80;47.78;100087.13;2068827;28;1639;-69
2024/03/02 00:40:19;;;;;;;;;;;;;;;19.85;47.60;100089.47;2068531;28;1555;-69
2024/03/02 00:41:31;;;;;;;;;;;;;;;19.79;47.62;100089.25;2067551;28;1722;-68
2024/03/02 00:42:32;;;;;;;;;;;;;;;19.80;47.60;100087.13;2067891;28;1552;-68
2024/03/02 00:43:40;;;;;;;;;;;;;;;19.77;47.74;100083.44;2067909;28;2186;-69
2024/03/02 00:44:47;;;;;;;;;;;;;;;19.76;47.80;100081.22;2067972;28;2495;-69
2024/03/02 00:45:49;;;;;;;;;;;;;;;19.80;47.68;100079.22;2066997;28;2998;-68
2024/03/02 00:46:50;;;;;;;;;;;;;;;19.82;47.59;100079.31;2066288;28;2609;-68
2024/03/02 00:47:52;;;;;;;;;;;;;;;19.83;47.54;100091.53;2067588;28;1694;-69
2024/03/02 00:48:55;;;;;;;;;;;;;;;19.76;47.74;100079.09;2068159;28;1736;-68
2024/03/02 00:49:56;;;;;;;;;;;;;;;19.74;47.67;100078.28;2068166;28;1581;-68
2024/03/02 00:50:58;;;;;;;;;;;;;;;19.72;47.88;100086.81;2067186;28;1699;-68
2024/03/02 00:51:59;;;;;;;;;;;;;;;19.72;47.85;100084.66;2068794;28;2026;-68
2024/03/02 00:53:01;;;;;;;;;;;;;;;19.77;47.77;100083.44;2067452;28;2380;-68
2024/03/02 00:54:09;;;;;;;;;;;;;;;19.82;47.57;100079.31;2069130;28;2486;-69
2024/03/02 00:55:10;;;;;;;;;;;;;;;19.78;47.71;100078.44;2067294;28;1674;-68
2024/03/02 00:56:11;;;;;;;;;;;;;;;19.74;47.71;100076.13;2068896;28;2157;-69
2024/03/02 00:57:13;;;;;;;;;;;;;;;19.70;47.83;100076.00;2068924;28;1764;-68
2024/03/02 00:58:15;;;;;;;;;;;;;;;19.76;47.67;100075.47;2067646;28;1735;-68
2024/03/02 00:59:16;;;;;;;;;;;;;;;19.76;47.59;100078.34;2067727;28;1565;-69
2024/03/02 01:00:18;;;;;;;;;;;;;;;19.75;47.82;100076.88;2066237;28;6205;-68
2024/03/02 01:01:19;;;;;;;;;;;;;;;19.78;47.74;100079.16;2067272;28;2475;-69
2024/03/02 01:02:21;;;;;;;;;;;;;;;19.76;47.75;100075.47;2067395;28;1707;-68
2024/03/02 01:03:22;;;;;;;;;;;;;;;19.76;47.75;100081.22;2067416;28;2487;-68
2024/03/02 01:04:24;;;;;;;;;;;;;;;19.73;47.80;100082.56;2068087;28;2455;-68
2024/03/02 01:05:25;;;;;;;;;;;;;;;19.73;47.82;100079.69;2067562;28;1653;-69
2024/03/02 01:06:26;;;;;;;;;;;;;;;19.71;47.89;100079.59;2068242;28;1653;-68
2024/03/02 01:07:28;;;;;;;;;;;;;;;19.76;47.74;100084.09;2069805;28;1601;-69
2024/03/02 01:08:29;;;;;;;;;;;;;;;19.80;47.50;100081.38;2067159;28;1656;-69
2024/03/02 01:09:30;;;;;;;;;;;;;;;19.82;47.52;100084.31;2067288;28;2025;-68
2024/03/02 01:10:32;;;;;;;;;;;;;;;19.83;47.41;100080.03;2066476;28;1706;-68
2024/03/02 01:11:33;;;;;;;;;;;;;;;19.78;47.52;100084.91;2068240;28;1774;-69
2024/03/02 01:12:35;;;;;;;;;;;;;;;19.77;47.67;100076.94;2067272;28;2013;-68
2024/03/02 01:13:36;;;;;;;;;;;;;;;19.78;47.69;100076.28;2068175;28;2495;-68
2024/03/02 01:14:37;;;;;;;;;;;;;;;19.76;47.67;100076.22;2067043;28;2526;-68
2024/03/02 01:15:39;;;;;;;;;;;;;;;19.74;47.56;100070.38;2068422;28;3085;-67
2024/03/02 01:16:40;;;;;;;;;;;;;;;19.76;47.67;100070.47;2069783;28;1648;-68
2024/03/02 01:17:42;;;;;;;;;;;;;;;19.75;47.80;100063.25;2066751;28;1629;-69
2024/03/02 01:18:43;;;;;;;;;;;;;;;19.72;47.74;100064.56;2068118;28;1592;-68
2024/03/02 01:19:44;;;;;;;;;;;;;;;19.73;47.63;100068.94;2066421;28;2038;-67
2024/03/02 01:20:46;;;;;;;;;;;;;;;19.68;47.71;100067.28;2067147;28;1656;-68
2024/03/02 01:21:47;;;;;;;;;;;;;;;19.70;47.80;100073.13;2067404;28;1645;-68
2024/03/02 01:22:49;;;;;;;;;;;;;;;19.70;47.77;100069.50;2066680;28;1589;-68
2024/03/02 01:23:50;;;;;;;;;;;;;;;19.65;47.77;100069.34;2066172;28;2242;-67
2024/03/02 01:24:51;;;;;;;;;;;;;;;19.66;47.76;100070.09;2067806;28;2660;-68
2024/03/02 01:25:53;;;;;;;;;;;;;;;19.63;47.86;100072.16;2066924;28;1781;-68
2024/03/02 01:26:55;;;;;;;;;;;;;;;19.67;47.76;100069.41;2067240;28;1672;-68
2024/03/02 01:27:56;;;;;;;;;;;;;;;19.70;47.67;100069.50;2067256;28;1681;-67
2024/03/02 01:28:58;;;;;;;;;;;;;;;19.67;47.71;100080.88;2066189;28;1706;-68
2024/03/02 01:29:59;;;;;;;;;;;;;;;19.64;47.93;100064.25;2065556;28;2345;-68
2024/03/02 01:31:01;;;;;;;;;;;;;;;19.64;47.79;100062.13;2065666;28;5839;-68
2024/03/02 01:32:03;;;;;;;;;;;;;;;19.66;47.83;100065.06;2067124;28;1922;-68
2024/03/02 01:33:05;;;;;;;;;;;;;;;19.63;47.92;100057.78;2068124;28;1835;-68
2024/03/02 01:34:06;;;;;;;;;;;;;;;19.67;47.79;100062.94;2068024;28;1620;-68
2024/03/02 01:35:08;;;;;;;;;;;;;;;19.62;47.88;100047.69;2065975;28;2426;-69
2024/03/02 01:36:10;;;;;;;;;;;;;;;19.65;47.72;100055.00;2067670;28;2598;-69
2024/03/02 01:37:11;;;;;;;;;;;;;;;19.64;47.85;100047.75;2068139;28;1644;-69
2024/03/02 01:38:13;;;;;;;;;;;;;;;19.65;47.82;100057.84;2066920;28;1757;-68
2024/03/02 01:39:14;;;;;;;;;;;;;;;19.66;47.67;100053.56;2067769;28;1785;-68
2024/03/02 01:40:15;;;;;;;;;;;;;;;19.65;47.84;100048.47;2066725;28;2038;-68
2024/03/02 01:41:17;;;;;;;;;;;;;;;19.66;47.63;100044.97;2069386;28;1850;-68
2024/03/02 01:42:18;;;;;;;;;;;;;;;19.63;47.88;100052.03;2068202;28;1641;-68
2024/03/02 01:43:19;;;;;;;;;;;;;;;19.62;47.92;100044.81;2068744;28;1779;-69
2024/03/02 01:44:21;;;;;;;;;;;;;;;19.60;47.86;100041.84;2067687;28;1705;-68
2024/03/02 01:45:22;;;;;;;;;;;;;;;19.66;47.62;100044.97;2067113;28;2515;-69
2024/03/02 01:46:24;;;;;;;;;;;;;;;19.67;47.63;100042.81;2068265;28;2178;-68
2024/03/02 01:47:25;;;;;;;;;;;;;;;19.65;47.79;100037.75;2067803;28;1953;-69
2024/03/02 01:48:27;;;;;;;;;;;;;;;19.65;47.71;100043.50;2068155;28;1624;-68
2024/03/02 01:49:28;;;;;;;;;;;;;;;19.63;47.86;100040.56;2069062;28;1577;-69
2024/03/02 01:50:33;;;;;;;;;;;;;;;19.65;47.73;100039.88;2065036;28;2196;-68
2024/03/02 01:51:34;;;;;;;;;;;;;;;19.64;47.84;100039.13;2066770;28;2109;-68
2024/03/02 01:52:36;;;;;;;;;;;;;;;19.62;47.78;100041.94;2066816;28;1973;-68
2024/03/02 01:53:37;;;;;;;;;;;;;;;19.62;47.75;100041.19;2068623;28;1661;-68
2024/03/02 01:54:38;;;;;;;;;;;;;;;19.60;47.87;100036.13;2068503;28;1732;-68
2024/03/02 01:55:40;;;;;;;;;;;;;;;19.62;47.84;100032.59;2066217;28;2549;-68
2024/03/02 01:56:41;;;;;;;;;;;;;;;19.62;47.68;100039.06;2067856;28;2503;-69
2024/03/02 01:57:44;;;;;;;;;;;;;;;19.62;47.85;100038.34;2068063;28;1712;-68
2024/03/02 01:58:46;;;;;;;;;;;;;;;19.60;47.85;100041.84;2066758;28;1727;-69
2024/03/02 01:59:48;;;;;;;;;;;;;;;19.59;47.81;100028.91;2067343;28;1684;-68
2024/03/02 02:00:50;;;;;;;;;;;;;;;19.62;47.66;100033.31;2064763;28;6206;-68
2024/03/02 02:01:51;;;;;;;;;;;;;;;19.64;47.83;100030.53;2067131;28;2451;-68
2024/03/02 02:02:53;;;;;;;;;;;;;;;19.68;47.57;100024.19;2067586;28;1641;-69
2024/03/02 02:03:55;;;;;;;;;;;;;;;19.64;47.67;100030.53;2066889;28;1928;-68
2024/03/02 02:04:56;;;;;;;;;;;;;;;19.64;47.67;100026.91;2067532;28;1675;-69
2024/03/02 02:05:58;;;;;;;;;;;;;;;19.62;47.65;100021.84;2068257;28;1705;-68
2024/03/02 02:06:59;;;;;;;;;;;;;;;19.62;47.73;100021.84;2066534;28;2503;-68
2024/03/02 02:08:01;;;;;;;;;;;;;;;19.63;47.58;100034.81;2066421;28;2585;-68
2024/03/02 02:09:02;;;;;;;;;;;;;;;19.62;47.73;100024.69;2066816;28;1665;-68
2024/03/02 02:10:04;;;;;;;;;;;;;;;19.62;47.54;100027.56;2068541;28;2029;-68
2024/03/02 02:11:06;;;;;;;;;;;;;;;19.57;47.76;100020.22;2067915;28;1848;-68
2024/03/02 02:12:07;;;;;;;;;;;;;;;19.57;47.71;100025.97;2068122;28;2550;-68
2024/03/02 02:13:09;;;;;;;;;;;;;;;19.57;47.87;100023.09;2065015;28;2669;-68
2024/03/02 02:14:11;;;;;;;;;;;;;;;19.59;47.68;100010.94;2066283;28;1682;-68
2024/03/02 02:15:28;;;;;;;;;;;;;;;19.57;47.79;100003.00;2066990;28;2424;-68
2024/03/02 02:16:30;;;;;;;;;;;;;;;19.54;47.86;100015.81;2066711;28;2096;-68
2024/03/02 02:17:31;;;;;;;;;;;;;;;19.54;47.92;100012.94;2065921;28;2511;-68
2024/03/02 02:18:33;;;;;;;;;;;;;;;19.59;47.76;100016.69;2066445;28;1809;-68
2024/03/02 02:19:34;;;;;;;;;;;;;;;19.59;47.83;100016.69;2067588;28;1656;-68
2024/03/02 02:20:35;;;;;;;;;;;;;;;19.57;47.75;100002.25;2068444;28;2073;-69
2024/03/02 02:21:37;;;;;;;;;;;;;;;19.59;47.77;100008.81;2067440;28;2014;-68
2024/03/02 02:22:38;;;;;;;;;;;;;;;19.57;47.74;100008.72;2068629;28;1750;-68
2024/03/02 02:23:40;;;;;;;;;;;;;;;19.57;47.74;100008.00;2068357;28;2381;-68
2024/03/02 02:24:41;;;;;;;;;;;;;;;19.57;47.75;100003.00;2067931;28;1698;-68
2024/03/02 02:25:43;;;;;;;;;;;;;;;19.53;47.79;100008.59;2067232;28;2275;-68
2024/03/02 02:26:44;;;;;;;;;;;;;;;19.54;47.74;100009.31;2066391;28;1781;-68
2024/03/02 02:27:46;;;;;;;;;;;;;;;19.57;47.71;100003.00;2063914;28;2388;-69
2024/03/02 02:28:47;;;;;;;;;;;;;;;19.54;47.85;100003.56;2065156;28;2443;-68
2024/03/02 02:29:48;;;;;;;;;;;;;;;19.55;47.72;100000.03;2065176;28;2534;-68
2024/03/02 02:30:50;;;;;;;;;;;;;;;19.57;47.70;100005.13;2065652;28;6117;-68
2024/03/02 02:31:51;;;;;;;;;;;;;;;19.55;47.66;99999.31;2066519;28;1764;-68
2024/03/02 02:32:53;;;;;;;;;;;;;;;19.57;47.64;100003.00;2066559;28;1910;-69
2024/03/02 02:33:55;;;;;;;;;;;;;;;19.56;47.78;100004.41;2067318;28;1847;-68
2024/03/02 02:34:56;;;;;;;;;;;;;;;19.54;47.66;100009.31;2066802;28;1746;-68
2024/03/02 02:35:57;;;;;;;;;;;;;;;19.52;47.79;100007.13;2066243;28;2345;-68
2024/03/02 02:36:59;;;;;;;;;;;;;;;19.51;47.91;100011.38;2067061;28;2538;-68
2024/03/02 02:38:02;;;;;;;;;;;;;;;19.53;47.90;100008.59;2066506;28;2502;-68
2024/03/02 02:39:04;;;;;;;;;;;;;;;19.54;47.76;100015.81;2066776;28;2678;-68
2024/03/02 02:40:05;;;;;;;;;;;;;;;19.53;47.77;100005.72;2068496;28;1699;-68
2024/03/02 02:41:07;;;;;;;;;;;;;;;19.54;47.73;100001.44;2066262;28;1809;-68
2024/03/02 02:42:08;;;;;;;;;;;;;;;19.55;47.72;100011.53;2066870;28;1657;-68
2024/03/02 02:43:10;;;;;;;;;;;;;;;19.54;47.66;99998.59;2069959;28;1743;-68
2024/03/02 02:44:14;;;;;;;;;;;;;;;19.54;47.71;100012.94;2068524;28;1655;-64
2024/03/02 02:45:16;;;;;;;;;;;;;;;19.51;47.81;100005.63;2066832;28;2541;-64
2024/03/02 02:46:17;;;;;;;;;;;;;;;19.48;47.86;100006.97;2067738;28;2502;-68
2024/03/02 02:47:18;;;;;;;;;;;;;;;19.49;47.78;100002.69;2067994;28;2523;-72
2024/03/02 02:48:20;;;;;;;;;;;;;;;19.48;47.85;100009.84;2069073;28;2610;-66
2024/03/02 02:49:21;;;;;;;;;;;;;;;19.51;47.59;100005.63;2069369;28;2306;-66
2024/03/02 02:50:23;;;;;;;;;;;;;;;19.56;47.74;100006.50;2069921;28;2125;-66
2024/03/02 02:51:25;;;;;;;;;;;;;;;19.55;47.69;100013.66;2066679;28;2428;-66
2024/03/02 02:52:30;;;;;;;;;;;;;;;19.55;47.61;100011.53;2068821;28;2486;-66
2024/03/02 02:53:32;;;;;;;;;;;;;;;19.55;47.68;100000.03;2069336;28;2224;-66
2024/03/02 02:54:33;;;;;;;;;;;;;;;19.53;47.67;100002.09;2068328;28;2382;-66
2024/03/02 02:55:34;;;;;;;;;;;;;;;19.54;47.73;100003.56;2070132;28;1759;-66
2024/03/02 02:56:36;;;;;;;;;;;;;;;19.51;47.71;99999.88;2069403;28;1667;-66
2024/03/02 02:57:39;;;;;;;;;;;;;;;19.48;47.78;100006.97;2067369;28;2515;-66
2024/03/02 02:58:41;;;;;;;;;;;;;;;19.48;47.79;100009.84;2068244;28;2486;-66
2024/03/02 02:59:43;;;;;;;;;;;;;;;19.47;47.77;100014.13;2067343;28;2455;-67
2024/03/02 03:00:44;;;;;;;;;;;;;;;19.44;47.83;100012.56;2066853;28;6137;-67
2024/03/02 03:01:46;;;;;;;;;;;;;;;19.43;48.13;100017.56;2067268;28;2416;-67
2024/03/02 03:02:48;;;;;;;;;;;;;;;19.42;47.85;100016.09;2068524;28;2228;-66
2024/03/02 03:03:51;;;;;;;;;;;;;;;19.47;47.71;100008.38;2067104;28;2332;-67
2024/03/02 03:04:52;;;;;;;;;;;;;;;19.46;47.83;100009.75;2066870;28;2410;-67
2024/03/02 03:05:54;;;;;;;;;;;;;;;19.48;47.79;100009.84;2070141;28;1777;-66
2024/03/02 03:06:56;;;;;;;;;;;;;;;19.47;47.83;100005.50;2069962;28;1663;-66
2024/03/02 03:07:57;;;;;;;;;;;;;;;19.47;47.87;100005.50;2067835;28;2522;-66
2024/03/02 03:08:58;;;;;;;;;;;;;;;19.46;47.85;100006.88;2068645;28;2530;-66
2024/03/02 03:10:00;;;;;;;;;;;;;;;19.45;47.84;100014.03;2067717;28;2344;-66
2024/03/02 03:11:02;;;;;;;;;;;;;;;19.49;47.69;100011.28;2068218;28;2105;-65
2024/03/02 03:12:03;;;;;;;;;;;;;;;19.46;47.84;100013.38;2067374;28;2448;-66
2024/03/02 03:13:07;;;;;;;;;;;;;;;19.46;47.80;100009.75;2068372;28;2455;-66
2024/03/02 03:14:09;;;;;;;;;;;;;;;19.45;47.72;100014.03;2068780;28;1663;-66
2024/03/02 03:15:11;;;;;;;;;;;;;;;19.44;47.78;100006.81;2067373;28;2743;-66
2024/03/02 03:16:12;;;;;;;;;;;;;;;19.45;47.88;100009.03;2068246;28;2795;-66
2024/03/02 03:17:14;;;;;;;;;;;;;;;19.46;47.87;100004.03;2068839;28;2561;-67
2024/03/02 03:18:15;;;;;;;;;;;;;;;19.47;47.77;100011.25;2067760;28;2471;-66
2024/03/02 03:19:16;;;;;;;;;;;;;;;19.44;47.71;100007.53;2067760;28;2475;-66
2024/03/02 03:20:18;;;;;;;;;;;;;;;19.44;47.69;100003.94;2067502;28;2300;-66
2024/03/02 03:21:19;;;;;;;;;;;;;;;19.47;47.80;99999.75;2068498;28;2070;-64
2024/03/02 03:22:20;;;;;;;;;;;;;;;19.46;47.80;100006.88;2069319;28;1967;-66
2024/03/02 03:23:22;;;;;;;;;;;;;;;19.42;47.84;100007.50;2069389;28;1711;-66
2024/03/02 03:24:23;;;;;;;;;;;;;;;19.42;47.85;100004.63;2067990;28;2174;-65
2024/03/02 03:25:25;;;;;;;;;;;;;;;19.43;47.88;100011.09;2068159;28;2375;-66
2024/03/02 03:26:26;;;;;;;;;;;;;;;19.43;47.82;100011.09;2068299;28;2347;-66
2024/03/02 03:27:27;;;;;;;;;;;;;;;19.41;47.89;100008.88;2067502;28;2443;-66
2024/03/02 03:28:29;;;;;;;;;;;;;;;19.40;47.97;100006.66;2069327;28;2517;-66
2024/03/02 03:29:30;;;;;;;;;;;;;;;19.43;47.95;100011.09;2067032;28;2337;-66
2024/03/02 03:30:31;;;;;;;;;;;;;;;19.43;47.86;100011.81;2066433;28;6223;-65
2024/03/02 03:31:33;;;;;;;;;;;;;;;19.46;47.72;100012.63;2066409;28;2338;-65
2024/03/02 03:32:34;;;;;;;;;;;;;;;19.44;47.63;100009.69;2066651;28;2538;-66
2024/03/02 03:33:36;;;;;;;;;;;;;;;19.40;47.86;100009.53;2067987;28;2435;-67
2024/03/02 03:34:37;;;;;;;;;;;;;;;19.39;47.91;100008.78;2068682;28;1814;-67
2024/03/02 03:35:39;;;;;;;;;;;;;;;19.40;47.94;100012.41;2068629;28;1675;-66
2024/03/02 03:36:40;;;;;;;;;;;;;;;19.39;47.92;100010.94;2069820;28;2089;-65
2024/03/02 03:37:41;;;;;;;;;;;;;;;19.37;48.00;100008.72;2066627;28;2333;-66
2024/03/02 03:38:43;;;;;;;;;;;;;;;19.38;47.97;100009.47;2068591;28;2456;-65
2024/03/02 03:39:44;;;;;;;;;;;;;;;19.37;47.99;100010.88;2068039;28;2380;-66
2024/03/02 03:40:47;;;;;;;;;;;;;;;19.37;47.85;100008.00;2068500;28;1793;-66
2024/03/02 03:41:48;;;;;;;;;;;;;;;19.39;47.93;100010.94;2066921;28;1655;-66
2024/03/02 03:42:50;;;;;;;;;;;;;;;19.37;47.97;100008.72;2068188;28;1907;-66
2024/03/02 03:43:51;;;;;;;;;;;;;;;19.36;47.99;100015.16;2067301;28;2396;-65
2024/03/02 03:44:53;;;;;;;;;;;;;;;19.35;48.04;100016.53;2069497;28;1673;-66
2024/03/02 03:45:54;;;;;;;;;;;;;;;19.34;47.99;100012.19;2068017;28;2476;-65
2024/03/02 03:46:56;;;;;;;;;;;;;;;19.33;48.08;100014.31;2068562;28;2317;-66
2024/03/02 03:47:57;;;;;;;;;;;;;;;19.34;48.06;100020.81;2065440;28;2633;-66
2024/03/02 03:48:58;;;;;;;;;;;;;;;19.34;48.03;100009.31;2067612;28;2769;-66
2024/03/02 03:50:00;;;;;;;;;;;;;;;19.33;48.08;100013.56;2068257;28;2297;-65
2024/03/02 03:51:01;;;;;;;;;;;;;;;19.33;48.15;100010.72;2068093;28;2432;-65
2024/03/02 03:52:03;;;;;;;;;;;;;;;19.33;48.17;100013.56;2069786;28;2356;-66
2024/03/02 03:53:05;;;;;;;;;;;;;;;19.34;48.13;100009.31;2066775;28;2224;-66
2024/03/02 03:54:06;;;;;;;;;;;;;;;19.34;48.09;100012.94;2068913;28;2017;-65
2024/03/02 03:55:08;;;;;;;;;;;;;;;19.35;48.10;100017.25;2067817;28;2309;-65
2024/03/02 03:56:09;;;;;;;;;;;;;;;19.36;48.02;100018.00;2069333;28;2134;-66
2024/03/02 03:57:11;;;;;;;;;;;;;;;19.35;48.08;100011.50;2066340;28;2385;-65
2024/03/02 03:58:12;;;;;;;;;;;;;;;19.36;48.02;100013.00;2067770;28;2467;-66
2024/03/02 03:59:13;;;;;;;;;;;;;;;19.37;48.02;100013.72;2068056;28;1667;-66
2024/03/02 04:00:15;;;;;;;;;;;;;;;19.36;48.01;100015.16;2067584;28;5979;-65
2024/03/02 04:01:17;;;;;;;;;;;;;;;19.39;48.04;100016.69;2067901;28;2099;-65
2024/03/02 04:02:18;;;;;;;;;;;;;;;19.39;48.05;100013.81;2067346;28;1904;-66
2024/03/02 04:03:19;;;;;;;;;;;;;;;19.40;47.93;100021.78;2068004;28;1676;-65
2024/03/02 04:04:21;;;;;;;;;;;;;;;19.40;48.03;100024.63;2067805;28;2216;-65
2024/03/02 04:05:22;;;;;;;;;;;;;;;19.41;47.96;100026.09;2066748;28;1651;-66
2024/03/02 04:06:24;;;;;;;;;;;;;;;19.41;47.93;100025.38;2068859;28;2131;-66
2024/03/02 04:07:25;;;;;;;;;;;;;;;19.40;47.94;100029.63;2066598;28;2283;-65
2024/03/02 04:08:26;;;;;;;;;;;;;;;19.41;48.01;100031.13;2068187;28;2345;-66
2024/03/02 04:09:28;;;;;;;;;;;;;;;19.41;48.01;100037.59;2067127;28;2114;-65
2024/03/02 04:10:30;;;;;;;;;;;;;;;19.42;48.12;100032.56;2067323;28;2164;-65
2024/03/02 04:11:31;;;;;;;;;;;;;;;19.41;48.19;100037.59;2066889;28;2309;-66
2024/03/02 04:12:33;;;;;;;;;;;;;;;19.40;48.27;100036.13;2067722;28;2198;-66
2024/03/02 04:13:34;;;;;;;;;;;;;;;19.41;48.23;100031.13;2068413;28;1652;-65
2024/03/02 04:14:35;;;;;;;;;;;;;;;19.41;48.27;100036.84;2068670;28;2149;-66
2024/03/02 04:15:39;;;;;;;;;;;;;;;19.41;48.36;100031.13;2065812;28;2451;-66
2024/03/02 04:16:41;;;;;;;;;;;;;;;19.41;48.23;100031.84;2065962;28;2153;-66
2024/03/02 04:17:43;;;;;;;;;;;;;;;19.42;48.43;100038.31;2067833;28;2396;-65
2024/03/02 04:18:44;;;;;;;;;;;;;;;19.42;48.34;100029.72;2067383;28;2270;-66
2024/03/02 04:19:46;;;;;;;;;;;;;;;19.42;48.37;100026.84;2069207;28;1677;-66
2024/03/02 04:20:47;;;;;;;;;;;;;;;19.42;48.16;100033.34;2065166;28;2554;-66
2024/03/02 04:21:51;;;;;;;;;;;;;;;19.43;48.18;100037.66;2066942;28;2172;-66
2024/03/02 04:22:53;;;;;;;;;;;;;;;19.45;48.17;100037.00;2068699;28;2413;-66
2024/03/02 04:23:58;;;;;;;;;;;;;;;19.45;48.03;100037.75;2068364;28;1584;-65
2024/03/02 04:24:59;;;;;;;;;;;;;;;19.45;48.12;100034.13;2067578;28;1633;-65
2024/03/02 04:26:01;;;;;;;;;;;;;;;19.46;48.13;100042.06;2067872;28;2164;-66
2024/03/02 04:27:03;;;;;;;;;;;;;;;19.46;48.12;100035.59;2067079;28;2451;-65
2024/03/02 04:28:04;;;;;;;;;;;;;;;19.46;48.11;100038.47;2067745;28;2538;-66
2024/03/02 04:29:05;;;;;;;;;;;;;;;19.47;48.12;100045.72;2069324;28;2412;-65
2024/03/02 04:30:07;;;;;;;;;;;;;;;19.46;48.06;100036.34;2067613;28;6282;-65
2024/03/02 04:31:08;;;;;;;;;;;;;;;19.47;48.14;100042.84;2066863;28;2465;-65
2024/03/02 04:32:10;;;;;;;;;;;;;;;19.48;48.15;100047.16;2066823;28;2373;-66
2024/03/02 04:33:11;;;;;;;;;;;;;;;19.48;48.12;100041.41;2068299;28;1723;-65
2024/03/02 04:34:12;;;;;;;;;;;;;;;19.48;48.20;100035.69;2069044;28;2076;-66
2024/03/02 04:35:14;;;;;;;;;;;;;;;19.48;48.20;100050.03;2067000;28;2412;-65
2024/03/02 04:36:15;;;;;;;;;;;;;;;19.48;47.99;100041.41;2068483;28;2345;-66
2024/03/02 04:37:17;;;;;;;;;;;;;;;19.49;48.30;100045.03;2067708;28;2436;-66
2024/03/02 04:38:18;;;;;;;;;;;;;;;19.49;48.25;100042.88;2067323;28;2325;-66
2024/03/02 04:39:19;;;;;;;;;;;;;;;19.49;48.21;100048.63;2068479;28;2325;-66
2024/03/02 04:40:21;;;;;;;;;;;;;;;19.48;48.33;100044.28;2067866;28;1896;-65
2024/03/02 04:41:22;;;;;;;;;;;;;;;19.49;48.24;100045.03;2068700;28;1724;-65
2024/03/02 04:42:24;;;;;;;;;;;;;;;19.48;48.32;100050.03;2070032;28;1728;-66
2024/03/02 04:43:26;;;;;;;;;;;;;;;19.49;48.34;100050.75;2067490;28;1862;-65
2024/03/02 04:44:27;;;;;;;;;;;;;;;19.49;48.31;100045.03;2068232;28;1646;-65
2024/03/02 04:45:28;;;;;;;;;;;;;;;19.47;48.39;100042.84;2065840;28;2424;-65
2024/03/02 04:46:31;;;;;;;;;;;;;;;19.47;48.50;100045.72;2067142;28;2384;-66
2024/03/02 04:47:32;;;;;;;;;;;;;;;19.46;48.48;100047.81;2067716;28;2313;-66
2024/03/02 04:48:34;;;;;;;;;;;;;;;19.47;48.52;100051.44;2067740;28;2569;-66
2024/03/02 04:49:35;;;;;;;;;;;;;;;19.46;48.53;100055.69;2067237;28;2124;-65
2024/03/02 04:50:37;;;;;;;;;;;;;;;19.46;48.68;100055.69;2066820;28;2138;-66
2024/03/02 04:51:38;;;;;;;;;;;;;;;19.47;48.73;100051.44;2067254;28;2527;-65
2024/03/02 04:52:40;;;;;;;;;;;;;;;19.45;48.74;100049.22;2067259;28;2094;-65
2024/03/02 04:53:41;;;;;;;;;;;;;;;19.46;48.70;100052.81;2069335;28;1647;-66
2024/03/02 04:57:23;;;;;;;;;;;;;;;19.48;48.51;100052.19;2067160;28;2333;-66
2024/03/02 04:58:24;;;;;;;;;;;;;;;19.49;48.50;100056.50;2066312;28;2396;-65
2024/03/02 04:59:25;;;;;;;;;;;;;;;19.49;48.39;100057.25;2068141;28;1533;-65
2024/03/02 05:00:27;;;;;;;;;;;;;;;19.50;48.41;100058.00;2068392;28;6250;-66
2024/03/02 05:01:28;;;;;;;;;;;;;;;19.50;48.39;100055.13;2068966;28;2238;-65
2024/03/02 05:02:30;;;;;;;;;;;;;;;19.51;48.40;100059.47;2067794;28;2516;-65
2024/03/02 05:03:33;;;;;;;;;;;;;;;19.51;48.40;100060.19;2067419;28;2000;-65
2024/03/02 05:04:35;;;;;;;;;;;;;;;19.51;48.39;100068.81;2068410;28;2178;-66
2024/03/02 05:05:38;;;;;;;;;;;;;;;19.50;48.36;100064.47;2066846;28;2322;-65
2024/03/02 05:06:42;;;;;;;;;;;;;;;19.52;48.53;100063.81;2067196;28;2324;-65
2024/03/02 05:07:44;;;;;;;;;;;;;;;19.52;48.54;100063.81;2067688;28;1674;-65
2024/03/02 05:08:46;;;;;;;;;;;;;;;19.51;48.51;100057.31;2067404;28;2252;-65
2024/03/02 05:09:48;;;;;;;;;;;;;;;19.52;48.49;100070.28;2066460;28;2298;-65
2024/03/02 05:10:49;;;;;;;;;;;;;;;19.52;48.50;100066.69;2067739;28;1640;-66
2024/03/02 05:12:10;;;;;;;;;;;;;;;19.51;48.42;100065.94;2067892;28;2162;-65
2024/03/02 05:13:11;;;;;;;;;;;;;;;19.51;48.52;100074.53;2066881;28;2361;-66
2024/03/02 05:14:13;;;;;;;;;;;;;;;19.51;48.51;100068.81;2066589;28;2190;-66
2024/03/02 05:15:14;;;;;;;;;;;;;;;19.50;48.54;100073.09;2068628;28;2491;-66
2024/03/02 05:16:16;;;;;;;;;;;;;;;19.50;48.53;100067.34;2065684;28;2192;-65
2024/03/02 05:17:17;;;;;;;;;;;;;;;19.51;48.51;100068.06;2067845;28;1658;-66
2024/03/02 05:18:19;;;;;;;;;;;;;;;19.51;48.64;100068.06;2066466;28;2341;-67
2024/03/02 05:19:20;;;;;;;;;;;;;;;19.50;48.74;100067.34;2067954;28;1998;-65
2024/03/02 05:20:22;;;;;;;;;;;;;;;19.50;48.76;100078.09;2067515;28;2154;-66
2024/03/02 05:21:23;;;;;;;;;;;;;;;19.49;48.62;100077.34;2067721;28;1593;-66
2024/03/02 05:22:24;;;;;;;;;;;;;;;19.50;48.64;100069.47;2067014;28;1946;-66
2024/03/02 05:23:26;;;;;;;;;;;;;;;19.49;48.72;100080.22;2067725;28;1992;-67
2024/03/02 05:24:27;;;;;;;;;;;;;;;19.48;48.68;100075.88;2066767;28;2189;-66
2024/03/02 05:25:29;;;;;;;;;;;;;;;19.49;48.58;100077.34;2066520;28;2415;-66